Time;durP1;ratioP1;P1;durP2;ratioP2;P2;SDS_P1;SDS_P2;PMS_P1;PMS_P2;Temp;Humidity;BMP_temperature;BMP_pressure;BME280_temperature;BME280_humidity;BME280_pressure;Samples;Min_cycle;Max_cycle;Signal;HPM_P1;HPM_P2
2023/04/12 00:04:54;;;;;;;4.97;1.73;;;7.60;99.90;;;;;;4837692;22;20048;-77
2023/04/12 00:07:23;;;;;;;5.35;1.90;;;7.60;99.90;;;;;;5049340;28;20049;-77
2023/04/12 00:09:49;;;;;;;3.80;1.60;;;7.70;99.90;;;;;;5047891;28;20133;-77
2023/04/12 00:12:18;;;;;;;3.58;1.42;;;7.70;99.90;;;;;;5050461;28;20485;-77
2023/04/12 00:14:44;;;;;;;4.40;1.55;;;7.70;99.90;;;;;;5050895;28;20519;-77
2023/04/12 00:17:10;;;;;;;3.65;1.70;;;7.70;99.90;;;;;;5051466;28;20153;-77
2023/04/12 00:19:40;;;;;;;4.55;1.77;;;7.80;99.90;;;;;;5050043;28;20045;-77
2023/04/12 00:22:07;;;;;;;5.63;1.65;;;7.80;99.90;;;;;;5049590;28;20071;-77
2023/04/12 00:24:33;;;;;;;4.03;1.50;;;7.90;99.90;;;;;;5049796;28;20102;-76
2023/04/12 00:27:00;;;;;;;3.05;1.70;;;7.90;99.90;;;;;;5050333;28;20103;-77
2023/04/12 00:29:27;;;;;;;3.25;1.40;;;7.90;99.90;;;;;;5050563;28;20143;-76
2023/04/12 00:31:52;;;;;;;3.85;1.60;;;8.00;99.90;;;;;;5049813;28;20502;-77
2023/04/12 00:34:18;;;;;;;5.30;1.52;;;8.00;99.90;;;;;;5049624;28;20059;-75
2023/04/12 00:36:44;;;;;;;8.25;1.85;;;8.10;99.90;;;;;;5049662;28;20045;-76
2023/04/12 00:39:09;;;;;;;6.03;1.73;;;8.10;99.90;;;;;;5048576;28;20068;-77
2023/04/12 00:41:36;;;;;;;4.15;1.48;;;8.20;99.90;;;;;;5050722;28;20056;-76
2023/04/12 00:44:02;;;;;;;3.20;1.40;;;8.20;99.90;;;;;;5049275;28;20044;-77
2023/04/12 00:46:28;;;;;;;4.55;1.70;;;8.30;99.90;;;;;;5048439;28;20048;-76
2023/04/12 00:48:55;;;;;;;4.22;1.80;;;8.40;99.90;;;;;;5050391;28;20120;-76
2023/04/12 00:51:24;;;;;;;8.68;2.00;;;8.30;99.90;;;;;;5050614;28;20102;-76
2023/04/12 00:53:52;;;;;;;3.80;1.70;;;8.40;99.90;;;;;;5050324;28;20464;-75
2023/04/12 00:56:18;;;;;;;5.82;1.90;;;8.40;99.90;;;;;;5047751;28;20128;-78
2023/04/12 00:58:44;;;;;;;5.05;1.50;;;8.40;99.90;;;;;;5050385;28;20041;-77
2023/04/12 01:01:10;;;;;;;6.30;1.90;;;8.50;99.90;;;;;;5048410;28;20393;-76
2023/04/12 01:03:41;;;;;;;4.05;1.52;;;8.50;99.90;;;;;;5049227;28;20045;-76
2023/04/12 01:06:58;;;;;;;5.95;1.70;;;8.60;99.90;;;;;;5048911;28;20060;-76
2023/04/12 01:09:30;;;;;;;3.72;2.00;;;8.60;99.90;;;;;;5039358;28;20143;-76
2023/04/12 01:12:15;;;;;;;5.70;1.70;;;8.60;99.90;;;;;;5050111;28;20512;-75
2023/04/12 01:15:02;;;;;;;3.80;2.00;;;8.60;99.90;;;;;;5049719;28;20084;-75
2023/04/12 01:17:36;;;;;;;6.40;2.08;;;8.20;99.90;;;;;;5044722;28;20044;-75
2023/04/12 01:20:12;;;;;;;4.10;2.40;;;8.60;99.90;;;;;;5050461;28;20041;-77
2023/04/12 01:22:41;;;;;;;3.88;2.08;;;8.70;99.90;;;;;;5049651;28;20056;-76
2023/04/12 01:25:28;;;;;;;2.65;1.50;;;8.70;99.90;;;;;;5051852;28;20052;-76
2023/04/12 01:28:01;;;;;;;3.83;1.60;;;8.80;99.90;;;;;;5036429;28;20555;-76
2023/04/12 01:30:28;;;;;;;4.25;1.80;;;8.80;99.90;;;;;;5053750;28;20056;-75
2023/04/12 01:32:56;;;;;;;5.72;1.85;;;8.70;99.90;;;;;;5054237;28;20055;-76
2023/04/12 01:35:29;;;;;;;7.30;2.05;;;8.70;99.90;;;;;;5051802;28;20087;-75
2023/04/12 01:37:57;;;;;;;6.75;2.05;;;8.70;99.90;;;;;;5036111;28;20080;-78
2023/04/12 01:40:23;;;;;;;3.83;2.05;;;8.60;99.90;;;;;;5053304;28;20040;-76
2023/04/12 01:42:49;;;;;;;5.57;1.83;;;8.60;99.90;;;;;;5053193;28;20137;-76
2023/04/12 01:45:15;;;;;;;4.88;2.00;;;8.50;99.90;;;;;;5036474;28;20132;-77
2023/04/12 01:47:41;;;;;;;5.60;2.20;;;8.60;99.90;;;;;;5052870;28;20037;-75
2023/04/12 01:50:09;;;;;;;5.47;1.73;;;8.60;99.90;;;;;;5053544;28;20103;-75
2023/04/12 01:52:40;;;;;;;5.97;2.03;;;8.60;99.90;;;;;;5053862;28;20056;-78
2023/04/12 01:55:07;;;;;;;8.88;1.90;;;8.60;99.90;;;;;;5054048;28;20048;-76
2023/04/12 01:57:36;;;;;;;4.68;2.13;;;8.60;99.90;;;;;;5053682;28;20508;-77
2023/04/12 02:00:05;;;;;;;5.10;2.38;;;8.60;99.90;;;;;;5053913;28;20049;-76
2023/04/12 02:02:31;;;;;;;4.63;2.13;;;8.60;99.90;;;;;;5052837;28;20048;-76
2023/04/12 02:04:59;;;;;;;5.07;1.90;;;8.70;99.90;;;;;;5052636;28;20267;-76
2023/04/12 02:07:25;;;;;;;8.63;2.00;;;8.60;99.90;;;;;;5053448;28;20053;-76
2023/04/12 02:09:51;;;;;;;4.15;1.65;;;8.60;99.90;;;;;;5053546;28;20392;-76
2023/04/12 02:12:16;;;;;;;3.80;2.10;;;8.60;99.90;;;;;;5053818;28;20053;-76
2023/04/12 02:14:42;;;;;;;5.82;2.08;;;8.60;99.90;;;;;;5053789;28;20045;-76
2023/04/12 02:17:08;;;;;;;4.47;2.25;;;8.60;99.90;;;;;;5053307;28;20053;-77
2023/04/12 02:19:34;;;;;;;4.07;1.70;;;8.60;99.90;;;;;;5051950;28;20056;-77
2023/04/12 02:22:01;;;;;;;3.10;1.77;;;8.60;99.90;;;;;;5052237;28;20393;-76
2023/04/12 02:24:27;;;;;;;5.85;2.30;;;8.50;99.90;;;;;;5052910;28;20489;-76
2023/04/12 02:26:53;;;;;;;7.68;2.13;;;8.50;99.90;;;;;;5053464;28;20049;-76
2023/04/12 02:29:19;;;;;;;6.63;2.03;;;8.50;99.90;;;;;;5051334;28;20120;-75
2023/04/12 02:31:45;;;;;;;5.18;2.13;;;8.40;99.90;;;;;;5051867;28;20182;-76
2023/04/12 02:34:12;;;;;;;6.82;2.30;;;8.40;99.90;;;;;;5052095;28;20056;-78
2023/04/12 02:36:37;;;;;;;5.15;2.47;;;8.40;99.90;;;;;;5050568;28;20084;-77
2023/04/12 02:39:03;;;;;;;4.18;2.05;;;8.40;99.90;;;;;;5053021;28;20076;-77
2023/04/12 02:41:29;;;;;;;9.10;2.35;;;8.40;99.90;;;;;;5052821;28;20056;-76
2023/04/12 02:43:55;;;;;;;5.53;1.95;;;8.30;99.90;;;;;;5053028;28;20041;-76
2023/04/12 02:46:26;;;;;;;5.80;2.00;;;8.30;99.90;;;;;;5051488;28;20493;-76
2023/04/12 02:48:51;;;;;;;3.13;1.55;;;8.30;99.90;;;;;;5052992;28;20116;-75
2023/04/12 02:51:17;;;;;;;7.10;2.08;;;8.20;99.90;;;;;;5052408;28;20119;-76
2023/04/12 02:53:43;;;;;;;5.22;1.73;;;8.30;99.90;;;;;;5051875;28;20456;-76
2023/04/12 02:56:09;;;;;;;3.83;1.63;;;8.30;99.90;;;;;;5052680;28;20420;-77
2023/04/12 02:58:35;;;;;;;4.63;1.70;;;8.30;99.90;;;;;;5051233;28;20041;-78
2023/04/12 03:01:06;;;;;;;3.95;1.50;;;8.40;99.90;;;;;;5051796;28;20059;-76
2023/04/12 03:03:34;;;;;;;3.33;1.75;;;8.40;99.90;;;;;;5052245;28;20049;-75
2023/04/12 03:05:59;;;;;;;3.78;1.65;;;8.40;99.90;;;;;;5052124;28;20413;-76
2023/04/12 03:08:25;;;;;;;3.97;1.45;;;8.30;99.90;;;;;;5034848;28;20206;-77
2023/04/12 03:10:51;;;;;;;4.40;1.80;;;8.40;99.90;;;;;;5052619;28;20048;-76
2023/04/12 03:13:16;;;;;;;3.80;1.48;;;8.40;99.90;;;;;;5052579;28;20045;-80
2023/04/12 03:15:45;;;;;;;5.72;1.70;;;8.40;99.90;;;;;;5051105;28;20044;-76
2023/04/12 03:18:10;;;;;;;3.38;1.75;;;8.40;99.90;;;;;;5051537;28;20092;-77
2023/04/12 03:20:38;;;;;;;3.90;1.30;;;8.40;99.90;;;;;;5051711;28;20080;-76
2023/04/12 03:23:04;;;;;;;3.45;1.33;;;8.40;99.90;;;;;;5050829;28;20128;-76
2023/04/12 03:25:30;;;;;;;4.63;1.38;;;8.50;99.90;;;;;;5051819;28;20128;-76
2023/04/12 03:27:55;;;;;;;3.60;1.40;;;8.40;99.90;;;;;;5050382;28;20460;-77
2023/04/12 03:30:21;;;;;;;2.92;1.40;;;8.50;99.90;;;;;;5049558;28;20045;-78
2023/04/12 03:32:47;;;;;;;4.00;1.80;;;8.50;99.90;;;;;;5047640;28;20107;-76
2023/04/12 03:35:13;;;;;;;4.15;1.63;;;8.50;99.90;;;;;;5049449;28;20124;-77
2023/04/12 03:37:41;;;;;;;3.90;1.52;;;8.50;99.90;;;;;;5049159;28;20052;-77
2023/04/12 03:40:08;;;;;;;2.47;1.38;;;8.50;99.90;;;;;;5051644;28;20080;-77
2023/04/12 03:42:33;;;;;;;4.07;1.55;;;8.50;99.90;;;;;;5050778;28;20051;-76
2023/04/12 03:45:00;;;;;;;6.40;1.75;;;8.50;99.90;;;;;;5051471;28;20048;-78
2023/04/12 03:47:25;;;;;;;3.67;1.42;;;8.50;99.90;;;;;;5050760;28;20421;-77
2023/04/12 03:49:54;;;;;;;5.72;2.00;;;8.50;99.90;;;;;;5050514;28;20037;-76
2023/04/12 03:52:20;;;;;;;3.65;1.85;;;8.40;99.90;;;;;;5051775;28;20511;-77
2023/04/12 03:54:46;;;;;;;2.88;1.40;;;8.40;99.90;;;;;;5051804;28;20053;-76
2023/04/12 03:57:11;;;;;;;3.17;1.50;;;8.40;99.90;;;;;;5051591;28;20496;-78
2023/04/12 03:59:37;;;;;;;4.00;1.65;;;8.40;99.90;;;;;;5033747;28;20045;-76
2023/04/12 04:02:03;;;;;;;4.47;1.73;;;8.40;99.90;;;;;;5050390;28;20128;-76
2023/04/12 04:04:29;;;;;;;3.10;1.63;;;8.30;99.90;;;;;;5051066;28;20076;-77
2023/04/12 04:06:55;;;;;;;3.97;2.17;;;8.40;99.90;;;;;;5050309;28;20481;-76
2023/04/12 04:09:21;;;;;;;7.07;1.88;;;8.40;99.90;;;;;;5050894;28;20041;-79
2023/04/12 04:11:48;;;;;;;3.50;1.40;;;8.30;99.90;;;;;;5050255;28;20102;-78
2023/04/12 04:14:14;;;;;;;3.58;1.58;;;8.40;99.90;;;;;;5050539;28;20057;-79
2023/04/12 04:16:40;;;;;;;3.55;1.48;;;8.40;99.90;;;;;;5050105;28;20443;-79
2023/04/12 04:19:05;;;;;;;4.35;1.40;;;8.40;99.90;;;;;;5035254;28;20060;-77
2023/04/12 04:21:31;;;;;;;4.07;1.50;;;8.40;99.90;;;;;;5049974;28;20134;-79
2023/04/12 04:24:01;;;;;;;6.85;2.80;;;8.40;99.90;;;;;;5049837;28;20055;-77
2023/04/12 04:26:32;;;;;;;3.03;1.77;;;8.40;99.90;;;;;;5050328;28;20686;-77
2023/04/12 04:29:00;;;;;;;4.72;1.80;;;8.40;99.90;;;;;;5049269;28;20056;-78
2023/04/12 04:31:35;;;;;;;2.95;1.60;;;8.30;99.90;;;;;;5050116;28;20041;-77
2023/04/12 04:34:02;;;;;;;4.35;2.10;;;8.30;99.90;;;;;;5051259;28;20078;-77
2023/04/12 04:36:28;;;;;;;5.32;1.77;;;8.20;99.90;;;;;;5050827;28;20416;-78
2023/04/12 04:38:56;;;;;;;3.35;1.58;;;8.20;99.90;;;;;;5050928;28;20049;-77
2023/04/12 04:41:23;;;;;;;4.68;1.70;;;8.20;99.90;;;;;;5050999;28;20060;-78
2023/04/12 04:43:49;;;;;;;5.25;1.73;;;8.20;99.90;;;;;;5049035;28;20053;-78
2023/04/12 04:46:16;;;;;;;3.22;1.33;;;8.10;99.90;;;;;;5049816;28;20064;-77
2023/04/12 04:48:42;;;;;;;3.60;1.35;;;8.10;99.90;;;;;;5049848;28;20441;-79
2023/04/12 04:51:07;;;;;;;4.63;1.38;;;8.10;99.90;;;;;;5049488;28;20081;-77
2023/04/12 04:53:33;;;;;;;4.65;1.42;;;8.10;99.90;;;;;;5049629;28;20126;-78
2023/04/12 04:56:00;;;;;;;4.88;1.25;;;8.10;99.90;;;;;;5048907;28;20053;-77
2023/04/12 04:58:26;;;;;;;5.05;1.70;;;8.10;99.90;;;;;;5047280;28;20049;-77
2023/04/12 05:00:56;;;;;;;2.63;1.30;;;8.00;99.90;;;;;;5047937;28;20127;-77
2023/04/12 05:03:22;;;;;;;4.20;1.33;;;8.10;99.90;;;;;;5049841;28;20053;-77
2023/04/12 05:05:50;;;;;;;4.25;1.63;;;8.00;99.90;;;;;;5049641;28;20057;-78
2023/04/12 05:08:16;;;;;;;3.45;1.30;;;8.10;99.90;;;;;;5050447;28;20044;-77
2023/04/12 05:10:52;;;;;;;2.72;1.30;;;8.00;99.90;;;;;;5050908;28;20049;-77
2023/04/12 05:13:18;;;;;;;5.70;1.95;;;8.00;99.90;;;;;;5050004;28;20064;-78
2023/04/12 05:15:44;;;;;;;3.33;1.58;;;8.00;99.90;;;;;;5050342;28;20409;-79
2023/04/12 05:18:10;;;;;;;2.50;1.40;;;8.00;99.90;;;;;;5050610;28;20051;-79
2023/04/12 05:20:38;;;;;;;3.75;1.45;;;8.00;99.90;;;;;;5050615;28;20049;-78
2023/04/12 05:23:04;;;;;;;2.40;1.30;;;7.90;99.90;;;;;;5050725;28;20076;-77
2023/04/12 05:25:29;;;;;;;3.42;1.58;;;7.90;99.90;;;;;;5050034;28;20044;-79
2023/04/12 05:27:55;;;;;;;3.40;1.40;;;7.90;99.90;;;;;;5050374;28;20044;-78
2023/04/12 05:30:21;;;;;;;4.05;1.50;;;7.90;99.90;;;;;;5048582;28;20053;-77
2023/04/12 05:32:47;;;;;;;2.22;1.40;;;7.90;99.90;;;;;;5049721;28;20048;-77
2023/04/12 05:35:12;;;;;;;3.10;1.10;;;7.80;99.90;;;;;;5047990;28;20072;-77
2023/04/12 05:37:38;;;;;;;4.95;1.40;;;7.80;99.90;;;;;;5049175;28;20045;-77
2023/04/12 05:40:08;;;;;;;5.28;1.67;;;7.80;99.90;;;;;;5049942;28;20052;-77
2023/04/12 05:42:36;;;;;;;3.88;1.40;;;7.80;99.90;;;;;;5048863;28;20433;-77
2023/04/12 05:45:02;;;;;;;2.10;1.10;;;7.80;99.90;;;;;;5050358;28;20408;-77
2023/04/12 05:47:28;;;;;;;4.18;1.50;;;7.80;99.90;;;;;;5049860;28;20052;-77
2023/04/12 05:49:54;;;;;;;2.55;1.30;;;7.80;99.90;;;;;;5048829;28;20400;-76
2023/04/12 05:52:19;;;;;;;4.28;1.40;;;7.80;99.90;;;;;;5048636;28;20045;-78
2023/04/12 05:54:45;;;;;;;4.93;1.42;;;7.80;99.90;;;;;;5049112;28;20045;-78
2023/04/12 05:57:11;;;;;;;3.50;1.55;;;7.80;99.90;;;;;;5049078;28;20063;-77
2023/04/12 05:59:37;;;;;;;2.85;1.55;;;7.80;99.90;;;;;;5049860;28;20033;-78
2023/04/12 06:02:03;;;;;;;3.85;1.60;;;7.70;99.90;;;;;;5048613;28;20107;-76
2023/04/12 06:04:29;;;;;;;5.72;1.80;;;7.70;99.90;;;;;;5049914;28;20060;-77
2023/04/12 06:06:55;;;;;;;7.35;1.60;;;7.70;99.90;;;;;;5049122;28;20057;-77
2023/04/12 06:09:21;;;;;;;3.58;2.00;;;7.70;99.90;;;;;;5049784;28;20071;-78
2023/04/12 06:11:46;;;;;;;3.03;1.48;;;7.70;99.90;;;;;;5052630;28;20187;-76
2023/04/12 06:14:12;;;;;;;3.58;1.60;;;7.70;99.90;;;;;;5053829;28;20048;-78
2023/04/12 06:16:38;;;;;;;5.43;2.10;;;7.70;99.90;;;;;;5053282;28;20060;-73
2023/04/12 06:19:04;;;;;;;3.47;1.42;;;7.70;99.90;;;;;;5054008;28;20605;-73
2023/04/12 06:21:30;;;;;;;5.95;1.58;;;7.70;99.90;;;;;;5053139;28;20087;-73
2023/04/12 06:23:55;;;;;;;4.13;1.65;;;7.70;99.90;;;;;;5053450;28;20171;-73
2023/04/12 06:26:21;;;;;;;4.55;1.85;;;7.70;99.90;;;;;;5051939;28;20102;-73
2023/04/12 06:28:47;;;;;;;3.35;1.67;;;7.70;99.90;;;;;;5053267;28;20045;-74
2023/04/12 06:31:14;;;;;;;3.15;1.90;;;7.70;99.90;;;;;;5034084;28;20152;-73
2023/04/12 06:33:40;;;;;;;5.57;2.38;;;7.70;99.90;;;;;;5053636;28;20080;-75
2023/04/12 06:36:06;;;;;;;3.38;1.55;;;7.70;99.90;;;;;;5052863;28;20060;-75
2023/04/12 06:38:32;;;;;;;4.53;2.00;;;7.70;99.90;;;;;;5053029;28;20037;-74
2023/04/12 06:40:58;;;;;;;4.97;1.40;;;7.70;99.90;;;;;;5053203;28;20804;-72
2023/04/12 06:43:23;;;;;;;3.15;1.42;;;7.70;99.90;;;;;;5053252;28;20114;-74
2023/04/12 06:45:49;;;;;;;4.13;1.60;;;7.70;99.90;;;;;;5052983;28;20148;-74
2023/04/12 06:48:15;;;;;;;3.40;1.60;;;7.70;99.90;;;;;;5052099;28;20056;-75
2023/04/12 06:50:41;;;;;;;3.88;1.92;;;7.70;99.90;;;;;;5053400;28;20055;-74
2023/04/12 06:53:06;;;;;;;3.05;1.48;;;7.70;99.90;;;;;;5052479;28;20049;-74
2023/04/12 06:55:32;;;;;;;2.90;1.55;;;7.70;99.90;;;;;;5052132;28;20037;-73
2023/04/12 06:57:58;;;;;;;4.07;1.60;;;7.70;99.90;;;;;;5052766;28;20134;-74
2023/04/12 07:00:23;;;;;;;3.90;1.63;;;7.70;99.90;;;;;;5051563;28;20412;-74
2023/04/12 07:02:49;;;;;;;2.63;1.60;;;7.70;99.90;;;;;;5053034;28;20053;-74
2023/04/12 07:05:15;;;;;;;5.20;1.70;;;7.70;99.90;;;;;;5052442;28;20064;-80
2023/04/12 07:07:40;;;;;;;3.38;1.40;;;7.70;99.90;;;;;;5042079;28;20064;-78
2023/04/12 07:10:07;;;;;;;4.13;1.50;;;7.80;99.90;;;;;;5042796;28;20950;-78
2023/04/12 07:12:32;;;;;;;4.57;1.55;;;7.80;99.90;;;;;;5050368;28;20045;-79
2023/04/12 07:14:58;;;;;;;3.30;1.65;;;7.80;99.90;;;;;;5048195;28;20684;-80
2023/04/12 07:17:25;;;;;;;3.55;2.00;;;7.80;99.90;;;;;;5052088;28;20079;-80
2023/04/12 07:19:53;;;;;;;2.97;2.05;;;7.80;99.90;;;;;;5052055;28;20040;-81
2023/04/12 07:22:19;;;;;;;3.75;1.70;;;7.80;99.90;;;;;;5050124;28;20066;-81
2023/04/12 07:24:45;;;;;;;3.75;1.88;;;7.80;99.90;;;;;;5052048;28;20116;-80
2023/04/12 07:27:10;;;;;;;2.60;1.60;;;7.80;99.90;;;;;;5052164;28;20128;-79
2023/04/12 07:29:36;;;;;;;3.20;1.75;;;7.70;99.90;;;;;;5051617;28;20653;-80
2023/04/12 07:32:03;;;;;;;4.35;2.08;;;7.70;99.90;;;;;;5050776;28;20087;-80
2023/04/12 07:34:29;;;;;;;3.20;1.60;;;7.70;99.90;;;;;;5051752;28;20045;-80
2023/04/12 07:36:55;;;;;;;2.95;1.67;;;7.80;99.90;;;;;;5051251;28;20051;-80
2023/04/12 07:39:21;;;;;;;5.50;2.28;;;7.80;99.90;;;;;;5051819;28;20381;-79
2023/04/12 07:41:48;;;;;;;3.72;1.80;;;7.80;99.90;;;;;;5034500;28;20052;-79
2023/04/12 07:44:14;;;;;;;5.70;1.95;;;7.80;99.90;;;;;;5051296;28;20538;-79
2023/04/12 07:46:40;;;;;;;4.47;2.10;;;7.80;99.90;;;;;;5051687;28;20575;-78
2023/04/12 07:49:09;;;;;;;4.43;1.98;;;7.80;99.90;;;;;;5051691;28;20111;-78
2023/04/12 07:51:35;;;;;;;3.75;2.13;;;7.70;99.90;;;;;;5051203;28;20084;-78
2023/04/12 07:54:01;;;;;;;5.68;2.00;;;7.80;99.90;;;;;;5051269;28;20116;-78
2023/04/12 07:56:27;;;;;;;3.83;2.05;;;7.80;99.90;;;;;;5051994;28;20183;-78
2023/04/12 07:58:52;;;;;;;3.60;1.85;;;7.70;99.90;;;;;;5050606;28;20049;-79
2023/04/12 08:01:18;;;;;;;4.38;2.00;;;7.70;99.90;;;;;;5050261;28;20508;-80
2023/04/12 08:03:44;;;;;;;4.43;2.45;;;7.70;99.90;;;;;;5033581;28;20105;-81
2023/04/12 08:06:10;;;;;;;4.25;2.17;;;7.80;99.90;;;;;;5049215;28;20442;-78
2023/04/12 08:08:36;;;;;;;5.80;2.22;;;7.70;99.90;;;;;;5049933;28;20123;-79
2023/04/12 08:11:03;;;;;;;4.38;2.10;;;7.80;99.90;;;;;;5051093;28;20671;-80
2023/04/12 08:13:29;;;;;;;4.57;2.47;;;7.70;99.90;;;;;;5045063;28;20053;-78
2023/04/12 08:15:55;;;;;;;3.17;2.00;;;7.70;99.90;;;;;;5047289;28;20052;-78
2023/04/12 08:18:20;;;;;;;4.63;1.90;;;7.80;99.90;;;;;;5040053;28;20040;-79
2023/04/12 08:20:48;;;;;;;5.75;3.15;;;7.70;99.90;;;;;;5049602;28;20045;-79
2023/04/12 08:23:14;;;;;;;3.90;2.00;;;7.80;99.90;;;;;;5049717;28;20057;-79
2023/04/12 08:25:40;;;;;;;3.10;2.03;;;7.80;99.90;;;;;;5051380;28;20041;-78
2023/04/12 08:28:07;;;;;;;3.42;2.22;;;7.80;99.90;;;;;;5050310;28;20086;-78
2023/04/12 08:30:33;;;;;;;4.30;2.03;;;7.80;99.90;;;;;;5033320;28;20183;-79
2023/04/12 08:32:59;;;;;;;6.30;2.65;;;7.80;99.90;;;;;;5049572;28;20421;-79
2023/04/12 08:35:24;;;;;;;4.65;1.98;;;7.80;99.90;;;;;;5049676;28;20045;-78
2023/04/12 08:37:51;;;;;;;3.17;2.10;;;7.90;99.90;;;;;;5050576;28;20044;-78
2023/04/12 08:40:17;;;;;;;3.10;1.90;;;7.90;99.90;;;;;;5047536;28;20049;-78
2023/04/12 08:42:43;;;;;;;3.42;1.90;;;8.00;99.90;;;;;;5048171;28;20055;-79
2023/04/12 08:45:10;;;;;;;4.80;2.05;;;8.00;99.90;;;;;;5046869;28;20045;-78
2023/04/12 08:47:38;;;;;;;4.50;1.83;;;8.10;99.90;;;;;;5047938;28;20052;-78
2023/04/12 08:50:08;;;;;;;2.50;1.70;;;8.10;99.90;;;;;;5041370;28;20044;-79
2023/04/12 08:52:35;;;;;;;3.17;1.80;;;8.20;99.90;;;;;;5046611;28;20079;-77
2023/04/12 08:55:03;;;;;;;2.95;1.55;;;8.30;99.90;;;;;;5049765;28;20106;-77
2023/04/12 08:57:29;;;;;;;3.88;1.85;;;8.40;99.90;;;;;;5048910;28;20052;-77
2023/04/12 08:59:57;;;;;;;3.72;1.90;;;8.50;99.90;;;;;;5050353;28;20045;-78
2023/04/12 09:02:22;;;;;;;2.70;1.60;;;8.50;99.90;;;;;;5048770;28;20497;-77
2023/04/12 09:04:49;;;;;;;3.78;2.10;;;8.50;99.90;;;;;;5049623;28;20135;-78
2023/04/12 09:07:15;;;;;;;3.65;1.55;;;8.50;99.90;;;;;;5050292;28;20409;-78
2023/04/12 09:09:46;;;;;;;3.85;2.00;;;8.50;99.90;;;;;;5047826;28;20033;-77
2023/04/12 09:12:14;;;;;;;2.70;1.50;;;8.50;99.90;;;;;;5049633;28;20579;-78
2023/04/12 09:14:42;;;;;;;2.30;1.63;;;8.40;99.90;;;;;;5048834;28;20084;-78
2023/04/12 09:17:25;;;;;;;2.75;2.03;;;8.40;99.90;;;;;;5049788;28;20123;-78
2023/04/12 09:19:52;;;;;;;2.95;1.90;;;8.40;99.90;;;;;;5050373;28;20119;-76
2023/04/12 09:22:17;;;;;;;3.45;2.30;;;8.30;99.90;;;;;;5050460;28;20863;-76
2023/04/12 09:24:49;;;;;;;4.07;2.72;;;8.30;99.90;;;;;;5050081;28;20037;-77
2023/04/12 09:27:15;;;;;;;3.45;2.60;;;8.20;99.90;;;;;;5050308;28;20052;-77
2023/04/12 09:29:41;;;;;;;4.30;3.00;;;8.20;99.90;;;;;;5049801;28;20045;-76
2023/04/12 09:32:08;;;;;;;4.05;3.05;;;8.30;99.90;;;;;;5032367;28;20361;-77
2023/04/12 09:34:35;;;;;;;4.07;2.97;;;8.20;99.90;;;;;;5049284;28;20458;-77
2023/04/12 09:37:15;;;;;;;4.30;3.50;;;8.30;99.90;;;;;;5050668;28;20053;-77
2023/04/12 09:39:41;;;;;;;4.50;3.47;;;8.30;99.90;;;;;;5047345;28;20045;-77
2023/04/12 09:42:08;;;;;;;4.63;3.47;;;8.30;99.90;;;;;;5048887;28;20076;-77
2023/04/12 09:44:34;;;;;;;5.50;3.60;;;8.30;99.90;;;;;;5049588;28;20652;-77
2023/04/12 09:47:01;;;;;;;3.67;2.90;;;8.30;99.90;;;;;;5054389;28;20136;-75
2023/04/12 09:49:38;;;;;;;5.85;3.65;;;8.30;99.90;;;;;;5054199;28;20076;-77
2023/04/12 09:52:09;;;;;;;4.20;3.53;;;8.30;99.90;;;;;;5054858;28;20491;-76
2023/04/12 09:54:47;;;;;;;5.53;3.75;;;8.30;99.90;;;;;;5052701;28;20049;-77
2023/04/12 09:57:15;;;;;;;4.28;3.50;;;8.40;99.90;;;;;;5053748;28;20493;-77
2023/04/12 09:59:43;;;;;;;5.82;3.80;;;8.40;99.90;;;;;;5053940;28;20443;-76
2023/04/12 10:02:15;;;;;;;5.32;3.95;;;8.50;99.90;;;;;;5053508;28;20051;-76
2023/04/12 10:04:42;;;;;;;4.53;3.75;;;8.60;99.90;;;;;;5053824;28;20466;-76
2023/04/12 10:07:08;;;;;;;4.78;3.95;;;8.80;99.90;;;;;;5053642;28;20080;-76
2023/04/12 10:09:36;;;;;;;5.25;3.97;;;8.90;99.90;;;;;;5053779;28;20087;-75
2023/04/12 10:12:02;;;;;;;6.10;4.03;;;9.00;99.90;;;;;;5053971;28;20081;-76
2023/04/12 10:14:28;;;;;;;4.82;3.67;;;9.10;99.90;;;;;;5053821;28;20091;-77
2023/04/12 10:16:59;;;;;;;5.85;4.05;;;9.20;99.90;;;;;;5053926;28;20041;-77
2023/04/12 10:19:26;;;;;;;6.55;3.85;;;9.20;99.90;;;;;;5052036;28;20723;-76
2023/04/12 10:21:52;;;;;;;4.47;3.78;;;9.10;99.90;;;;;;5053806;28;20045;-76
2023/04/12 10:24:25;;;;;;;4.97;4.07;;;9.10;99.90;;;;;;5051015;28;20045;-76
2023/04/12 10:26:52;;;;;;;6.43;4.13;;;9.20;99.90;;;;;;5052039;28;20127;-77
2023/04/12 10:29:32;;;;;;;5.28;3.80;;;9.20;99.90;;;;;;5053149;28;20045;-76
2023/04/12 10:32:21;;;;;;;6.30;4.30;;;9.40;99.90;;;;;;5044622;28;20049;-78
2023/04/12 10:34:52;;;;;;;5.28;4.10;;;9.70;99.90;;;;;;5038998;28;20076;-77
2023/04/12 10:37:18;;;;;;;5.25;3.67;;;9.80;99.90;;;;;;5051118;28;20049;-77
2023/04/12 10:39:51;;;;;;;4.57;3.88;;;9.90;99.90;;;;;;5051809;28;20052;-77
2023/04/12 10:42:17;;;;;;;4.95;3.60;;;10.00;99.90;;;;;;5052497;28;20159;-76
2023/04/12 10:44:43;;;;;;;4.28;2.95;;;10.10;99.90;;;;;;5052193;28;20041;-77
2023/04/12 10:47:10;;;;;;;4.63;3.35;;;10.10;99.90;;;;;;5052472;28;20080;-76
2023/04/12 10:49:36;;;;;;;4.68;3.25;;;10.20;99.90;;;;;;5050406;28;20059;-76
2023/04/12 10:52:10;;;;;;;4.65;3.13;;;10.20;99.90;;;;;;5052185;28;20052;-76
2023/04/12 10:54:36;;;;;;;4.18;2.90;;;10.40;99.90;;;;;;5050592;28;20051;-77
2023/04/12 10:57:27;;;;;;;4.40;2.63;;;10.50;99.90;;;;;;5050798;28;20120;-77
2023/04/12 10:59:56;;;;;;;4.90;2.70;;;10.60;99.90;;;;;;5050377;28;20040;-79
2023/04/12 11:02:22;;;;;;;6.90;3.10;;;10.70;99.90;;;;;;5051047;28;20115;-77
2023/04/12 11:05:09;;;;;;;4.97;2.67;;;10.80;99.90;;;;;;5050361;28;20584;-75
2023/04/12 11:07:45;;;;;;;5.82;3.10;;;10.90;99.90;;;;;;5051012;28;20049;-76
2023/04/12 11:10:20;;;;;;;5.00;3.17;;;11.00;99.90;;;;;;5051539;28;20080;-77
2023/04/12 11:12:53;;;;;;;5.17;3.27;;;11.00;99.90;;;;;;5034086;28;20095;-76
2023/04/12 11:15:19;;;;;;;5.05;3.40;;;11.00;99.90;;;;;;5050633;28;20053;-74
2023/04/12 11:17:55;;;;;;;5.70;3.17;;;11.00;99.90;;;;;;5050592;28;20045;-76
2023/04/12 11:20:21;;;;;;;4.85;3.08;;;11.20;99.90;;;;;;5051056;28;20049;-76
2023/04/12 11:22:48;;;;;;;5.40;3.08;;;11.50;99.90;;;;;;5051212;28;20513;-77
2023/04/12 11:25:16;;;;;;;6.20;2.90;;;11.90;99.90;;;;;;5049135;28;20056;-76
2023/04/12 11:27:50;;;;;;;4.18;2.88;;;12.10;99.90;;;;;;5043023;28;20049;-77
2023/04/12 11:30:16;;;;;;;5.85;2.80;;;11.90;99.90;;;;;;5050190;28;20044;-76
2023/04/12 11:32:44;;;;;;;4.65;2.78;;;11.80;99.90;;;;;;5050615;28;20116;-76
2023/04/12 11:35:10;;;;;;;4.60;2.70;;;12.00;99.90;;;;;;5051161;28;20049;-77
2023/04/12 11:37:37;;;;;;;4.28;2.22;;;12.00;99.90;;;;;;5050995;28;20554;-78
2023/04/12 11:40:08;;;;;;;6.97;2.55;;;12.00;99.90;;;;;;5051522;28;20738;-75
2023/04/12 11:42:34;;;;;;;5.97;2.10;;;12.30;99.90;;;;;;5050190;28;20052;-76
2023/04/12 11:45:00;;;;;;;5.75;2.10;;;12.30;99.90;;;;;;5049872;28;20052;-76
2023/04/12 11:47:26;;;;;;;4.60;2.05;;;12.40;99.90;;;;;;5047691;28;20053;-76
2023/04/12 11:49:54;;;;;;;6.15;2.63;;;12.30;99.90;;;;;;5050784;28;20128;-78
2023/04/12 11:52:26;;;;;;;4.82;1.83;;;12.50;99.90;;;;;;5049324;28;20053;-78
2023/04/12 11:54:55;;;;;;;3.33;1.75;;;12.60;99.90;;;;;;5051149;28;20115;-78
2023/04/12 11:57:21;;;;;;;4.68;1.92;;;12.60;99.90;;;;;;5050251;28;20056;-77
2023/04/12 11:59:48;;;;;;;4.60;1.83;;;12.40;99.90;;;;;;5048900;28;20052;-75
2023/04/12 12:02:16;;;;;;;4.85;2.10;;;12.30;99.90;;;;;;5049698;28;20113;-76
2023/04/12 12:04:45;;;;;;;4.68;1.65;;;12.20;99.90;;;;;;5032849;28;20441;-76
2023/04/12 12:07:12;;;;;;;6.65;2.13;;;12.20;99.90;;;;;;5050024;28;20057;-75
2023/04/12 12:09:40;;;;;;;4.25;1.70;;;12.50;99.90;;;;;;5050038;28;20037;-79
2023/04/12 12:12:07;;;;;;;5.80;1.73;;;12.90;99.90;;;;;;5050787;28;20037;-76
2023/04/12 12:14:36;;;;;;;5.07;2.42;;;13.30;99.90;;;;;;5049559;28;20539;-77
2023/04/12 12:17:10;;;;;;;3.40;2.00;;;13.60;99.90;;;;;;5049092;28;20501;-79
2023/04/12 12:19:38;;;;;;;4.45;1.85;;;14.00;99.90;;;;;;5050228;28;20052;-79
2023/04/12 12:22:18;;;;;;;7.15;2.05;;;14.50;99.90;;;;;;5049869;28;20485;-77
2023/04/12 12:24:45;;;;;;;5.38;1.60;;;14.70;99.90;;;;;;5050634;28;20048;-77
2023/04/12 12:27:11;;;;;;;5.20;1.98;;;14.60;99.90;;;;;;5045070;28;20084;-79
2023/04/12 12:29:38;;;;;;;4.88;1.70;;;14.60;99.90;;;;;;5048942;28;20678;-78
2023/04/12 12:32:12;;;;;;;5.30;1.55;;;14.20;99.90;;;;;;5049712;28;20056;-79
2023/04/12 12:34:39;;;;;;;4.47;2.10;;;14.00;99.90;;;;;;5049481;28;20053;-79
2023/04/12 12:37:11;;;;;;;3.75;1.38;;;13.80;99.90;;;;;;5049955;28;20127;-77
2023/04/12 12:39:37;;;;;;;6.07;2.10;;;13.80;99.90;;;;;;5044679;28;20049;-77
2023/04/12 12:42:04;;;;;;;5.57;1.67;;;14.00;99.90;;;;;;5046676;28;20129;-76
2023/04/12 12:44:30;;;;;;;7.75;2.20;;;14.30;99.90;;;;;;5048493;28;20076;-79
2023/04/12 12:46:58;;;;;;;4.57;1.70;;;14.60;99.90;;;;;;5048991;28;20540;-80
2023/04/12 12:49:24;;;;;;;4.18;1.48;;;14.60;99.90;;;;;;5048991;28;20049;-80
2023/04/12 12:51:50;;;;;;;3.88;1.70;;;14.20;99.90;;;;;;5047493;28;20127;-79
2023/04/12 12:54:16;;;;;;;4.65;1.73;;;13.80;99.90;;;;;;5048721;28;20045;-79
2023/04/12 12:56:43;;;;;;;4.72;1.83;;;13.60;99.90;;;;;;5031276;28;20049;-79
2023/04/12 12:59:09;;;;;;;3.22;1.50;;;13.40;99.90;;;;;;5048825;28;20076;-79
2023/04/12 13:01:35;;;;;;;4.53;1.52;;;13.20;99.90;;;;;;5030766;28;20134;-77